Time;durP1;ratioP1;P1;durP2;ratioP2;P2;SDS_P1;SDS_P2;PMS_P1;PMS_P2;Temp;Humidity;BMP_temperature;BMP_pressure;BME280_temperature;BME280_humidity;BME280_pressure;Samples;Min_cycle;Max_cycle;Signal;HPM_P1;HPM_P2
2023/08/27 00:01:51;;;;;;;22.50;17.73;;;13.50;99.90;;;;;;5098341;28;20910;-82
2023/08/27 00:04:17;;;;;;;20.13;17.85;;;13.40;99.90;;;;;;5084733;28;20425;-82
2023/08/27 00:06:42;;;;;;;22.13;16.90;;;13.40;99.90;;;;;;5077451;28;20481;-82
2023/08/27 00:09:08;;;;;;;20.77;17.23;;;13.30;99.90;;;;;;5060700;28;20409;-81
2023/08/27 00:11:34;;;;;;;22.33;17.60;;;13.20;99.90;;;;;;5077704;28;20401;-81
2023/08/27 00:13:59;;;;;;;19.35;16.40;;;13.20;99.90;;;;;;5060812;28;20424;-81
2023/08/27 00:16:25;;;;;;;21.48;17.40;;;13.20;99.90;;;;;;5076612;28;20401;-82
2023/08/27 00:18:51;;;;;;;22.50;17.58;;;13.30;99.90;;;;;;5095161;28;20416;-81
2023/08/27 00:21:17;;;;;;;20.13;17.00;;;13.30;99.90;;;;;;5080435;28;20453;-83
2023/08/27 00:23:42;;;;;;;21.73;16.83;;;13.20;99.90;;;;;;5097221;28;20430;-82
2023/08/27 00:26:08;;;;;;;25.17;17.43;;;13.40;99.90;;;;;;5097625;28;20426;-82
2023/08/27 00:28:34;;;;;;;20.33;17.00;;;13.20;99.90;;;;;;5098331;28;20397;-82
2023/08/27 00:31:03;;;;;;;20.85;17.05;;;13.30;99.90;;;;;;5113304;28;20448;-82
2023/08/27 00:33:30;;;;;;;22.40;17.80;;;;;;;;;;5097250;28;20400;-82
2023/08/27 00:35:56;;;;;;;19.52;16.65;;;13.30;99.90;;;;;;5113977;27;20764;-81
2023/08/27 00:38:22;;;;;;;20.67;16.67;;;;;;;;;;5148902;27;20404;-81
2023/08/27 00:40:48;;;;;;;22.45;16.80;;;13.20;99.90;;;;;;5114536;28;20400;-81
2023/08/27 00:43:13;;;;;;;19.20;16.80;;;13.20;99.90;;;;;;5114540;28;20491;-82
2023/08/27 00:45:39;;;;;;;19.70;16.00;;;13.20;99.90;;;;;;5113156;28;20443;-81
2023/08/27 00:48:06;;;;;;;20.73;17.27;;;13.10;99.90;;;;;;5114224;28;20392;-82
2023/08/27 00:50:32;;;;;;;18.83;16.13;;;13.40;99.90;;;;;;5080963;28;20479;-82
2023/08/27 00:52:58;;;;;;;20.20;16.40;;;13.40;99.90;;;;;;5148658;27;20406;-83
2023/08/27 00:55:24;;;;;;;22.67;17.10;;;13.20;99.90;;;;;;5114690;28;20475;-82
2023/08/27 00:57:51;;;;;;;23.35;16.02;;;13.20;99.90;;;;;;5115020;28;20902;-82
2023/08/27 01:00:18;;;;;;;19.05;16.50;;;13.20;99.90;;;;;;5111554;28;20480;-82
2023/08/27 01:02:46;;;;;;;20.65;16.00;;;13.20;99.90;;;;;;5114608;28;20420;-82
2023/08/27 01:05:12;;;;;;;18.67;16.38;;;;;;;;;;5148602;27;20405;-82
2023/08/27 01:07:53;;;;;;;20.45;16.38;;;13.10;99.90;;;;;;5114642;28;20524;-82
2023/08/27 01:10:52;;;;;;;20.10;16.27;;;12.90;99.90;;;;;;5149467;27;20396;-82
2023/08/27 01:13:25;;;;;;;21.48;16.70;;;13.10;99.90;;;;;;5158403;27;20416;-81
2023/08/27 01:15:58;;;;;;;20.10;16.23;;;13.10;99.90;;;;;;5122459;28;20450;-81
2023/08/27 01:18:24;;;;;;;20.90;15.70;;;13.10;99.90;;;;;;5148955;27;20479;-82
2023/08/27 01:20:50;;;;;;;20.23;15.68;;;13.30;99.90;;;;;;5080106;28;20400;-82
2023/08/27 01:23:16;;;;;;;18.02;15.82;;;;;;;;;;5114008;28;20918;-81
2023/08/27 01:25:47;;;;;;;19.92;15.70;;;13.50;99.90;;;;;;5114042;28;20400;-81
2023/08/27 01:28:38;;;;;;;18.77;15.68;;;13.20;99.90;;;;;;5151794;27;20476;-81
2023/08/27 01:31:10;;;;;;;17.00;15.13;;;13.20;99.90;;;;;;5086730;28;20409;-81
2023/08/27 01:33:36;;;;;;;17.10;15.07;;;13.00;99.90;;;;;;5093767;28;20433;-82
2023/08/27 01:36:04;;;;;;;18.15;15.45;;;13.20;99.90;;;;;;5127574;27;20684;-81
2023/08/27 01:38:30;;;;;;;17.30;15.10;;;13.00;99.90;;;;;;5093313;28;20394;-82
2023/08/27 01:40:55;;;;;;;17.83;15.18;;;13.30;99.90;;;;;;5079157;28;20442;-81
2023/08/27 01:43:21;;;;;;;18.40;14.70;;;13.30;99.90;;;;;;5113508;28;20420;-82
2023/08/27 01:45:47;;;;;;;18.88;14.90;;;13.10;99.90;;;;;;5113056;28;20475;-81
2023/08/27 01:48:12;;;;;;;19.00;15.02;;;13.20;99.90;;;;;;5113176;28;20400;-81
2023/08/27 01:50:38;;;;;;;18.75;15.00;;;13.00;99.90;;;;;;5079607;28;20404;-81
2023/08/27 01:53:04;;;;;;;17.37;14.73;;;13.00;99.90;;;;;;5113884;28;20400;-82
2023/08/27 01:55:29;;;;;;;17.77;15.23;;;13.10;99.90;;;;;;5097078;28;20400;-82
2023/08/27 01:57:55;;;;;;;21.30;16.00;;;13.00;99.90;;;;;;5109950;28;20495;-82
2023/08/27 02:00:21;;;;;;;19.52;15.63;;;13.20;99.90;;;;;;5113266;28;20412;-82
2023/08/27 02:02:47;;;;;;;19.02;15.02;;;13.20;99.90;;;;;;5079398;28;20423;-82
2023/08/27 02:05:13;;;;;;;17.60;15.20;;;13.10;99.90;;;;;;5113527;28;20411;-82
2023/08/27 02:07:40;;;;;;;17.30;14.20;;;13.10;99.90;;;;;;5095954;28;20904;-82
2023/08/27 02:10:09;;;;;;;17.83;14.50;;;13.10;99.90;;;;;;5148175;27;20411;-81
2023/08/27 02:12:35;;;;;;;17.50;14.53;;;13.10;99.90;;;;;;5101398;28;20425;-82
2023/08/27 02:15:07;;;;;;;20.33;14.70;;;;;;;;;;5076612;28;20397;-82
2023/08/27 02:17:33;;;;;;;17.73;14.65;;;;;;;;;;5093037;28;20406;-81
2023/08/27 02:19:59;;;;;;;19.60;14.48;;;13.10;99.90;;;;;;5076137;28;20409;-81
2023/08/27 02:22:25;;;;;;;18.83;15.02;;;13.10;99.90;;;;;;5093118;28;20417;-82
2023/08/27 02:24:51;;;;;;;18.50;15.13;;;13.00;99.90;;;;;;5074546;28;20394;-82
2023/08/27 02:27:17;;;;;;;19.30;15.88;;;13.00;99.90;;;;;;5096313;28;20448;-82
2023/08/27 02:29:43;;;;;;;19.63;15.90;;;;;;;;;;5114156;28;20496;-81
2023/08/27 02:32:09;;;;;;;17.58;15.35;;;13.00;99.90;;;;;;5113790;28;20396;-83
2023/08/27 02:34:34;;;;;;;19.42;15.73;;;12.70;99.90;;;;;;5113378;28;20780;-82
2023/08/27 02:37:00;;;;;;;24.13;16.52;;;;;;;;;;5112871;28;20392;-82
2023/08/27 02:39:26;;;;;;;19.25;14.88;;;12.90;99.90;;;;;;5103488;28;20482;-82
2023/08/27 02:41:52;;;;;;;20.40;16.23;;;13.00;99.90;;;;;;5086924;28;20424;-82
2023/08/27 02:44:17;;;;;;;20.90;16.23;;;12.70;99.90;;;;;;5117012;28;20427;-82
2023/08/27 02:46:43;;;;;;;21.30;15.93;;;;;;;;;;5116785;28;20396;-82
2023/08/27 02:49:09;;;;;;;21.02;15.77;;;12.70;99.90;;;;;;5099682;28;20396;-82
2023/08/27 02:51:35;;;;;;;20.33;15.63;;;12.80;99.90;;;;;;5117393;28;20391;-82
2023/08/27 02:54:01;;;;;;;20.42;15.93;;;12.70;99.90;;;;;;5116879;28;20450;-82
2023/08/27 02:56:26;;;;;;;19.63;15.77;;;12.80;99.90;;;;;;5150152;27;20415;-82
2023/08/27 02:58:52;;;;;;;19.23;15.43;;;;;;;;;;5100094;28;20465;-82
2023/08/27 03:01:20;;;;;;;20.98;15.60;;;12.70;99.90;;;;;;5116470;28;20469;-82
2023/08/27 03:03:47;;;;;;;20.25;15.65;;;12.70;99.90;;;;;;5116610;28;20416;-82
2023/08/27 03:06:13;;;;;;;21.40;17.15;;;;;;;;;;5117290;27;20404;-83
2023/08/27 03:08:39;;;;;;;21.50;16.02;;;13.00;99.90;;;;;;5116625;28;20396;-82
2023/08/27 03:11:04;;;;;;;21.80;16.42;;;12.70;99.90;;;;;;5108664;28;20414;-81
2023/08/27 03:13:30;;;;;;;22.70;16.33;;;12.70;99.90;;;;;;5111906;28;20473;-81
2023/08/27 03:15:56;;;;;;;20.73;16.47;;;12.90;99.90;;;;;;5116815;28;20895;-81
2023/08/27 03:18:21;;;;;;;19.93;16.00;;;12.80;99.90;;;;;;5134056;27;20403;-81
2023/08/27 03:20:47;;;;;;;20.67;15.93;;;12.60;99.90;;;;;;5116642;28;20410;-82
2023/08/27 03:23:13;;;;;;;21.38;16.23;;;12.70;99.90;;;;;;5115407;28;20499;-82
2023/08/27 03:25:38;;;;;;;20.63;16.38;;;12.60;99.90;;;;;;5114569;28;20422;-81
2023/08/27 03:28:04;;;;;;;20.77;16.60;;;12.90;99.90;;;;;;5114009;28;20911;-82
2023/08/27 03:30:30;;;;;;;22.67;16.25;;;12.80;99.90;;;;;;5116435;28;20880;-82
2023/08/27 03:32:56;;;;;;;20.52;16.35;;;13.10;99.90;;;;;;5116117;28;20427;-82
2023/08/27 03:35:22;;;;;;;20.45;16.80;;;12.90;99.90;;;;;;5098193;28;20430;-82
2023/08/27 03:37:47;;;;;;;23.45;16.65;;;12.90;99.90;;;;;;5098411;28;20405;-82
2023/08/27 03:40:13;;;;;;;20.33;15.67;;;;;;;;;;5116436;28;20414;-82
2023/08/27 03:42:39;;;;;;;20.50;16.63;;;13.10;99.90;;;;;;5096827;28;20427;-81
2023/08/27 03:45:05;;;;;;;22.27;16.90;;;13.10;99.90;;;;;;5082042;28;20400;-81
2023/08/27 03:47:31;;;;;;;20.13;16.17;;;13.00;99.90;;;;;;5115786;28;20400;-81
2023/08/27 03:49:56;;;;;;;20.77;16.45;;;13.10;99.90;;;;;;5116023;28;20403;-82
2023/08/27 03:52:22;;;;;;;20.20;16.07;;;13.20;99.90;;;;;;5098645;28;20376;-82
2023/08/27 03:54:48;;;;;;;19.90;15.93;;;13.00;99.90;;;;;;5097159;28;20492;-82
2023/08/27 03:57:13;;;;;;;19.90;16.10;;;13.20;99.90;;;;;;5079851;28;20451;-82
2023/08/27 03:59:39;;;;;;;19.65;16.42;;;13.20;99.90;;;;;;5112250;28;20489;-80
2023/08/27 04:02:05;;;;;;;18.45;16.13;;;12.90;99.90;;;;;;5095289;28;20402;-82
2023/08/27 04:04:32;;;;;;;22.17;16.57;;;13.00;99.90;;;;;;5078468;28;20398;-82
2023/08/27 04:06:58;;;;;;;19.65;16.05;;;13.10;99.90;;;;;;5129213;27;20394;-82
2023/08/27 04:09:24;;;;;;;22.27;16.37;;;13.10;99.90;;;;;;5080236;28;21003;-81
2023/08/27 04:11:50;;;;;;;21.23;16.93;;;13.20;99.90;;;;;;5112127;28;20889;-81
2023/08/27 04:14:15;;;;;;;19.77;16.40;;;13.20;99.90;;;;;;5095179;28;20405;-82
2023/08/27 04:16:41;;;;;;;23.70;16.85;;;;;;;;;;5112100;27;20427;-81
2023/08/27 04:19:07;;;;;;;23.92;16.02;;;13.10;99.90;;;;;;5128938;27;20432;-81
2023/08/27 04:21:33;;;;;;;21.75;16.50;;;12.90;99.90;;;;;;5094603;28;20406;-81
2023/08/27 04:23:58;;;;;;;20.60;16.38;;;13.10;99.90;;;;;;5108694;27;20418;-81
2023/08/27 04:26:24;;;;;;;19.63;16.08;;;13.20;99.90;;;;;;5126235;28;20398;-80
2023/08/27 04:28:50;;;;;;;20.73;16.00;;;13.20;99.90;;;;;;5109494;28;20432;-82
2023/08/27 04:31:16;;;;;;;19.40;16.00;;;13.20;99.90;;;;;;5139190;27;20425;-81
2023/08/27 04:33:43;;;;;;;19.13;15.70;;;13.10;99.90;;;;;;5095103;28;21078;-82
2023/08/27 04:36:09;;;;;;;20.20;15.40;;;13.20;99.90;;;;;;5123326;27;20444;-81
2023/08/27 04:38:34;;;;;;;25.98;15.98;;;13.20;99.90;;;;;;5113668;28;20416;-81
2023/08/27 04:41:00;;;;;;;20.93;16.17;;;13.00;99.90;;;;;;5097831;28;20426;-81
2023/08/27 04:43:26;;;;;;;20.90;16.00;;;;;;;;;;5115231;28;20424;-82
2023/08/27 04:45:53;;;;;;;20.38;15.95;;;;;;;;;;5120124;28;20403;-82
2023/08/27 04:48:19;;;;;;;22.20;15.52;;;12.80;99.90;;;;;;5114512;28;20404;-82
2023/08/27 04:50:48;;;;;;;20.65;15.73;;;13.10;99.90;;;;;;5103503;28;20409;-82
2023/08/27 04:53:14;;;;;;;22.15;15.63;;;13.00;99.90;;;;;;5128757;27;20404;-81
2023/08/27 04:55:40;;;;;;;22.00;15.15;;;13.00;99.90;;;;;;5128308;27;20394;-81
2023/08/27 04:58:07;;;;;;;19.55;15.45;;;12.90;99.90;;;;;;5059745;28;20404;-81
2023/08/27 05:00:33;;;;;;;19.50;15.68;;;13.10;99.90;;;;;;5094575;28;20406;-81
2023/08/27 05:02:59;;;;;;;18.20;14.68;;;13.10;99.90;;;;;;5076782;28;20433;-81
2023/08/27 05:05:24;;;;;;;19.95;15.25;;;13.10;99.90;;;;;;5118099;27;20421;-81
2023/08/27 05:07:50;;;;;;;19.43;14.83;;;13.10;99.90;;;;;;5095819;28;20508;-81
2023/08/27 05:10:16;;;;;;;20.33;14.67;;;13.20;99.90;;;;;;5097193;28;20404;-81
2023/08/27 05:12:42;;;;;;;16.83;13.83;;;13.20;99.90;;;;;;5113267;28;20392;-82
2023/08/27 05:15:08;;;;;;;18.97;14.30;;;13.20;99.90;;;;;;5114064;28;20438;-82
2023/08/27 05:17:33;;;;;;;17.17;13.55;;;13.30;99.90;;;;;;5097336;28;20403;-82
2023/08/27 05:19:59;;;;;;;19.53;14.07;;;;;;;;;;5094949;28;20491;-82
2023/08/27 05:22:25;;;;;;;17.70;13.40;;;13.50;99.90;;;;;;5097005;28;20414;-81
2023/08/27 05:24:51;;;;;;;17.03;13.67;;;13.30;99.90;;;;;;5097119;28;20842;-81
2023/08/27 05:27:16;;;;;;;15.33;12.93;;;13.40;99.90;;;;;;5096445;28;20709;-81
2023/08/27 05:29:42;;;;;;;17.60;12.95;;;13.40;99.90;;;;;;5079645;28;20763;-81
2023/08/27 05:32:08;;;;;;;16.95;13.52;;;13.70;99.90;;;;;;5097379;28;20471;-81
2023/08/27 05:34:33;;;;;;;16.48;12.88;;;13.60;99.90;;;;;;5113725;28;20403;-81
2023/08/27 05:37:00;;;;;;;17.30;13.10;;;13.70;99.90;;;;;;5091064;28;20847;-81
2023/08/27 05:39:26;;;;;;;15.68;12.23;;;13.60;99.90;;;;;;5075909;28;20485;-82
2023/08/27 05:41:51;;;;;;;16.23;12.75;;;13.70;99.90;;;;;;5076271;28;20881;-82
2023/08/27 05:44:17;;;;;;;14.85;12.55;;;13.80;99.90;;;;;;5076140;28;20471;-81
2023/08/27 05:46:43;;;;;;;15.30;12.35;;;13.80;99.90;;;;;;5092787;28;20397;-82
2023/08/27 05:49:08;;;;;;;14.10;11.90;;;13.80;99.90;;;;;;5093258;28;20433;-81
2023/08/27 05:51:34;;;;;;;14.87;12.57;;;13.60;99.90;;;;;;5092969;28;20413;-81
2023/08/27 05:54:00;;;;;;;14.35;11.85;;;13.90;99.90;;;;;;5110058;28;20412;-81
2023/08/27 05:56:28;;;;;;;15.50;12.55;;;13.90;99.90;;;;;;5075236;28;20754;-82
2023/08/27 05:58:54;;;;;;;14.17;11.40;;;14.00;99.90;;;;;;5126286;27;20907;-81
2023/08/27 06:01:20;;;;;;;15.98;11.35;;;14.00;99.90;;;;;;5074651;28;20402;-82
2023/08/27 06:03:45;;;;;;;15.37;11.70;;;13.80;99.90;;;;;;5077548;28;20418;-82
2023/08/27 06:06:11;;;;;;;16.23;11.63;;;14.10;99.90;;;;;;5113758;28;20407;-82
2023/08/27 06:08:37;;;;;;;15.03;11.83;;;14.10;99.90;;;;;;5114973;28;20934;-82
2023/08/27 06:11:04;;;;;;;16.05;11.82;;;14.10;99.90;;;;;;5148092;27;20408;-83
2023/08/27 06:13:30;;;;;;;15.95;12.40;;;14.10;99.90;;;;;;5147624;27;20493;-82
2023/08/27 06:15:56;;;;;;;13.73;11.37;;;14.20;99.90;;;;;;5117375;28;20435;-83
2023/08/27 06:18:22;;;;;;;15.47;11.60;;;14.00;99.90;;;;;;5078922;28;20433;-82
2023/08/27 06:20:48;;;;;;;16.52;12.45;;;14.10;99.90;;;;;;5105852;28;20832;-82
2023/08/27 06:23:15;;;;;;;16.40;12.05;;;14.10;99.90;;;;;;5132218;27;20495;-81
2023/08/27 06:25:41;;;;;;;15.68;11.48;;;14.20;99.90;;;;;;5116018;28;20396;-82
2023/08/27 06:28:07;;;;;;;16.50;12.30;;;14.10;99.90;;;;;;5098865;28;20412;-82
2023/08/27 06:30:33;;;;;;;16.73;11.90;;;14.00;99.90;;;;;;5151354;27;20410;-82
2023/08/27 06:32:59;;;;;;;15.60;11.75;;;14.10;99.90;;;;;;5152083;27;20423;-82
2023/08/27 06:35:25;;;;;;;18.20;11.85;;;14.00;99.90;;;;;;5114229;28;21005;-82
2023/08/27 06:37:51;;;;;;;16.83;12.60;;;14.30;99.90;;;;;;5150080;27;20461;-82
2023/08/27 06:40:17;;;;;;;18.75;11.70;;;14.00;99.90;;;;;;5099638;28;20400;-82
2023/08/27 06:42:42;;;;;;;17.40;12.23;;;14.00;99.90;;;;;;5116313;28;20420;-82
2023/08/27 06:45:09;;;;;;;15.00;11.80;;;14.20;99.90;;;;;;5116748;28;20483;-83
2023/08/27 06:47:36;;;;;;;15.50;11.80;;;;;;;;;;5116677;28;20392;-83
2023/08/27 06:50:04;;;;;;;15.95;11.75;;;14.00;99.90;;;;;;5109377;27;20762;-78
2023/08/27 06:52:32;;;;;;;13.80;10.57;;;14.20;99.90;;;;;;5111936;28;20425;-78
2023/08/27 06:54:58;;;;;;;14.30;10.20;;;14.10;99.90;;;;;;5129476;27;20390;-78
2023/08/27 06:57:24;;;;;;;13.90;10.02;;;14.20;99.90;;;;;;5078679;28;20393;-78
2023/08/27 06:59:50;;;;;;;12.40;8.60;;;14.30;99.90;;;;;;5095580;28;20413;-78
2023/08/27 07:02:16;;;;;;;13.70;8.53;;;14.00;99.90;;;;;;5097168;28;20470;-79
2023/08/27 07:04:43;;;;;;;12.48;7.85;;;14.10;99.90;;;;;;5103325;28;20439;-78
2023/08/27 07:07:09;;;;;;;11.45;7.32;;;14.10;99.90;;;;;;5080969;28;20392;-77
2023/08/27 07:09:34;;;;;;;13.30;7.57;;;14.20;99.90;;;;;;5114767;28;20406;-78
2023/08/27 07:12:00;;;;;;;10.20;7.53;;;14.30;99.90;;;;;;5098914;28;20396;-78
2023/08/27 07:14:26;;;;;;;13.85;7.20;;;14.50;99.90;;;;;;5097697;28;20400;-78
2023/08/27 07:16:51;;;;;;;10.15;6.93;;;14.30;99.90;;;;;;5092646;28;20413;-78
2023/08/27 07:19:17;;;;;;;9.67;6.73;;;14.30;99.90;;;;;;5100465;28;20549;-78
2023/08/27 07:21:43;;;;;;;8.60;6.10;;;14.50;99.90;;;;;;5104167;28;20423;-78
2023/08/27 07:24:08;;;;;;;13.47;6.53;;;14.40;99.90;;;;;;5094634;28;20424;-77
2023/08/27 07:26:34;;;;;;;9.40;6.45;;;14.50;99.90;;;;;;5105735;28;20477;-77
2023/08/27 07:29:00;;;;;;;13.63;7.03;;;14.80;99.90;;;;;;5112835;28;21073;-77
2023/08/27 07:31:26;;;;;;;9.68;6.60;;;14.90;99.90;;;;;;5080656;28;20392;-77
2023/08/27 07:33:51;;;;;;;11.23;6.80;;;14.80;99.90;;;;;;5108390;28;20515;-78
2023/08/27 07:36:17;;;;;;;10.83;6.53;;;14.70;99.90;;;;;;5077479;28;20427;-76
2023/08/27 07:38:43;;;;;;;11.37;6.60;;;14.70;99.90;;;;;;5132184;27;20418;-78
2023/08/27 07:41:10;;;;;;;9.47;5.57;;;14.70;99.90;;;;;;5098420;28;20876;-78
2023/08/27 07:43:36;;;;;;;9.68;5.50;;;15.10;99.90;;;;;;5115097;28;20998;-78
2023/08/27 07:46:02;;;;;;;7.45;5.40;;;14.50;99.90;;;;;;5115805;28;20388;-78
2023/08/27 07:48:28;;;;;;;8.87;5.43;;;15.70;99.90;;;;;;5115446;28;20902;-77
2023/08/27 07:50:53;;;;;;;10.10;5.77;;;15.70;99.90;;;;;;5081070;28;20941;-77
2023/08/27 07:53:19;;;;;;;8.20;5.40;;;15.90;99.90;;;;;;5069370;28;20788;-77
2023/08/27 07:55:45;;;;;;;7.57;4.70;;;16.20;99.90;;;;;;5095636;28;20496;-78
2023/08/27 07:58:11;;;;;;;6.57;4.53;;;16.60;99.90;;;;;;5094790;28;20398;-78
2023/08/27 08:00:36;;;;;;;5.35;4.47;;;16.60;99.90;;;;;;5094743;28;20514;-78
2023/08/27 08:03:02;;;;;;;6.93;4.63;;;16.90;99.90;;;;;;5093464;28;20868;-76
2023/08/27 08:05:28;;;;;;;7.45;4.53;;;16.60;99.90;;;;;;5094385;28;20430;-77
2023/08/27 08:07:54;;;;;;;6.13;4.85;;;16.80;99.90;;;;;;5106789;28;20415;-77
2023/08/27 08:10:22;;;;;;;7.10;4.47;;;16.70;99.90;;;;;;5114366;28;20896;-78
2023/08/27 08:12:50;;;;;;;7.45;4.20;;;17.00;99.90;;;;;;5115065;28;20475;-78
2023/08/27 08:15:16;;;;;;;7.28;3.97;;;17.20;99.90;;;;;;5098213;28;20397;-78
2023/08/27 08:17:43;;;;;;;6.45;3.80;;;17.60;99.90;;;;;;5083797;28;20421;-78
2023/08/27 08:20:10;;;;;;;6.88;3.80;;;17.30;99.90;;;;;;5094937;28;20418;-78
2023/08/27 08:22:39;;;;;;;7.70;3.65;;;17.60;99.90;;;;;;5094612;28;20445;-78
2023/08/27 08:25:06;;;;;;;5.20;3.25;;;17.60;99.90;;;;;;5111598;28;20455;-78
2023/08/27 08:27:33;;;;;;;4.60;3.13;;;17.50;99.90;;;;;;5093216;28;20398;-78
2023/08/27 08:29:59;;;;;;;5.90;3.10;;;17.70;99.90;;;;;;5076619;28;20421;-77
2023/08/27 08:32:25;;;;;;;4.55;2.88;;;17.90;99.90;;;;;;5127135;27;20410;-78
2023/08/27 08:34:51;;;;;;;5.00;2.67;;;18.30;99.90;;;;;;5076669;28;20410;-77
2023/08/27 08:37:17;;;;;;;4.70;2.77;;;18.40;99.90;;;;;;5075748;28;20456;-77
2023/08/27 08:39:42;;;;;;;4.90;2.80;;;18.50;99.90;;;;;;5110901;27;20788;-77
2023/08/27 08:42:23;;;;;;;4.63;2.90;;;18.30;99.90;;;;;;5093360;28;20386;-78
2023/08/27 08:45:19;;;;;;;6.05;2.88;;;18.30;99.90;;;;;;5108549;28;20897;-77
2023/08/27 08:47:47;;;;;;;4.25;2.83;;;18.20;99.90;;;;;;5091658;28;20394;-78
2023/08/27 08:50:14;;;;;;;6.93;2.72;;;18.30;99.90;;;;;;5076382;28;20401;-78
2023/08/27 08:52:43;;;;;;;5.72;2.95;;;18.40;99.90;;;;;;5127046;27;20455;-78
2023/08/27 08:55:10;;;;;;;4.88;2.90;;;18.80;99.90;;;;;;5127278;27;20477;-77
2023/08/27 08:57:51;;;;;;;5.28;3.05;;;18.50;99.90;;;;;;5121950;27;20416;-77
2023/08/27 09:00:18;;;;;;;5.30;3.10;;;18.60;99.90;;;;;;5076275;28;20402;-76
2023/08/27 09:02:46;;;;;;;6.00;3.40;;;18.50;99.90;;;;;;5092857;28;20417;-77
2023/08/27 09:05:16;;;;;;;4.88;3.25;;;18.60;99.90;;;;;;5076381;28;20410;-76
2023/08/27 09:07:43;;;;;;;5.95;3.15;;;18.90;99.90;;;;;;5093048;28;20398;-77
2023/08/27 09:10:11;;;;;;;4.80;3.20;;;19.10;99.90;;;;;;5093295;28;20477;-77
2023/08/27 09:12:41;;;;;;;3.92;2.58;;;19.00;99.90;;;;;;5095414;28;20805;-77
2023/08/27 09:15:10;;;;;;;4.75;2.58;;;19.10;99.90;;;;;;5112696;28;20400;-77
2023/08/27 09:17:39;;;;;;;4.65;2.40;;;19.10;99.90;;;;;;5112964;28;20880;-77
2023/08/27 09:20:07;;;;;;;4.88;2.50;;;18.60;99.90;;;;;;5102042;28;20871;-77
2023/08/27 09:22:35;;;;;;;4.68;2.50;;;18.60;99.90;;;;;;5075083;28;20390;-77
2023/08/27 09:25:01;;;;;;;4.18;2.55;;;19.20;99.90;;;;;;5110117;28;20480;-77
2023/08/27 09:27:30;;;;;;;4.85;2.38;;;19.60;99.90;;;;;;5085470;28;20428;-77
2023/08/27 09:30:00;;;;;;;4.57;2.70;;;19.40;99.90;;;;;;5110257;28;20408;-77
2023/08/27 09:32:26;;;;;;;3.93;2.40;;;19.60;99.90;;;;;;5093605;28;20482;-77
2023/08/27 09:35:00;;;;;;;4.03;2.20;;;19.40;99.90;;;;;;5095590;28;20729;-77
2023/08/27 09:37:27;;;;;;;4.10;1.90;;;19.70;99.90;;;;;;5112721;28;20475;-78
2023/08/27 09:39:54;;;;;;;2.92;1.77;;;20.00;99.90;;;;;;5112957;28;20412;-77
2023/08/27 09:42:21;;;;;;;3.40;2.00;;;20.30;99.90;;;;;;5112705;28;20404;-77
2023/08/27 09:44:54;;;;;;;3.00;2.03;;;20.50;99.90;;;;;;5109134;28;20465;-77
2023/08/27 09:47:38;;;;;;;4.47;2.10;;;20.90;99.90;;;;;;5109803;28;20416;-76
2023/08/27 09:50:06;;;;;;;5.57;2.75;;;20.80;99.90;;;;;;5112851;28;20400;-83
2023/08/27 09:52:32;;;;;;;4.68;2.20;;;20.20;99.90;;;;;;5097385;28;20392;-83
2023/08/27 09:54:58;;;;;;;3.45;1.80;;;20.30;99.90;;;;;;5112718;28;20427;-83
2023/08/27 09:57:23;;;;;;;4.60;2.00;;;20.50;99.90;;;;;;5112919;28;20400;-82
2023/08/27 09:59:52;;;;;;;3.37;1.90;;;20.40;99.90;;;;;;5111528;28;20411;-83
2023/08/27 10:02:19;;;;;;;3.97;2.28;;;20.50;99.90;;;;;;5112286;28;20400;-83
2023/08/27 10:04:54;;;;;;;3.03;1.90;;;20.80;99.90;;;;;;5096530;28;20647;-83
2023/08/27 10:07:21;;;;;;;2.83;1.80;;;21.00;99.90;;;;;;5113373;28;20434;-83
2023/08/27 10:09:51;;;;;;;3.40;2.00;;;20.90;99.90;;;;;;5112946;28;20400;-83
2023/08/27 10:12:18;;;;;;;4.32;2.22;;;20.80;99.90;;;;;;5076807;28;20394;-83
2023/08/27 10:14:46;;;;;;;3.63;2.25;;;20.90;99.90;;;;;;5113324;28;20388;-82
2023/08/27 10:17:12;;;;;;;3.17;2.00;;;21.50;99.90;;;;;;5112745;28;20879;-81
2023/08/27 10:19:39;;;;;;;3.78;2.00;;;21.30;99.90;;;;;;5095542;28;20512;-81
2023/08/27 10:22:05;;;;;;;3.70;2.20;;;21.60;99.90;;;;;;5095923;28;20455;-82
2023/08/27 10:24:32;;;;;;;3.58;2.42;;;21.30;99.90;;;;;;5112785;28;20750;-82
2023/08/27 10:26:59;;;;;;;5.55;3.10;;;21.20;99.90;;;;;;5104015;28;20424;-83
2023/08/27 10:29:26;;;;;;;4.70;2.90;;;20.80;99.90;;;;;;5075471;28;20425;-82
2023/08/27 10:31:53;;;;;;;3.40;2.20;;;20.40;99.90;;;;;;5091737;28;20799;-83
2023/08/27 10:34:19;;;;;;;3.60;2.35;;;20.00;99.90;;;;;;5086672;28;20424;-84
2023/08/27 10:36:46;;;;;;;4.60;2.40;;;19.90;99.90;;;;;;5095519;28;20730;-83
2023/08/27 10:39:14;;;;;;;4.60;2.60;;;19.70;99.90;;;;;;5112516;28;20401;-83
2023/08/27 10:41:40;;;;;;;5.37;2.67;;;19.70;99.90;;;;;;5112298;28;20400;-82
2023/08/27 10:44:09;;;;;;;5.10;2.70;;;19.80;99.90;;;;;;5112290;28;20431;-83
2023/08/27 10:46:35;;;;;;;4.47;2.65;;;20.00;99.90;;;;;;5094005;28;20490;-83
2023/08/27 10:49:14;;;;;;;4.30;2.50;;;19.70;99.90;;;;;;5112904;28;20473;-81
2023/08/27 10:51:40;;;;;;;6.60;3.00;;;19.70;99.90;;;;;;5096265;28;20883;-83
2023/08/27 10:54:07;;;;;;;3.75;2.53;;;19.60;99.90;;;;;;5127313;28;20402;-82
2023/08/27 10:56:32;;;;;;;4.47;2.90;;;20.00;99.90;;;;;;5094824;28;20415;-82
2023/08/27 10:59:09;;;;;;;4.43;2.80;;;20.80;99.90;;;;;;5100047;28;20465;-82
2023/08/27 11:01:37;;;;;;;4.35;2.95;;;20.60;99.90;;;;;;5086967;28;20478;-84
2023/08/27 11:04:05;;;;;;;4.07;2.80;;;20.40;99.90;;;;;;5064233;28;20422;-82
2023/08/27 11:06:45;;;;;;;3.78;2.50;;;20.70;99.90;;;;;;5080158;28;20489;-82
2023/08/27 11:09:25;;;;;;;5.38;2.63;;;20.40;99.90;;;;;;5092983;28;20402;-81
2023/08/27 11:11:56;;;;;;;4.63;2.60;;;20.80;99.90;;;;;;5110777;28;20940;-82
2023/08/27 11:14:26;;;;;;;3.58;2.50;;;20.80;99.90;;;;;;5084455;28;20398;-82
2023/08/27 11:17:05;;;;;;;5.93;3.20;;;21.00;99.90;;;;;;5080768;28;20394;-82
2023/08/27 11:19:38;;;;;;;3.35;2.30;;;21.20;99.90;;;;;;5097025;28;20397;-83
2023/08/27 11:22:17;;;;;;;4.32;1.90;;;21.00;99.90;;;;;;5097075;28;20410;-83
2023/08/27 11:24:52;;;;;;;3.08;1.90;;;21.20;99.90;;;;;;5103866;28;20458;-81
2023/08/27 11:27:22;;;;;;;4.50;2.60;;;20.80;99.90;;;;;;5080320;28;20445;-83
2023/08/27 11:29:50;;;;;;;5.00;2.60;;;20.60;99.90;;;;;;5095168;28;20406;-82
2023/08/27 11:32:16;;;;;;;5.10;2.77;;;20.70;99.90;;;;;;5129363;27;20420;-81
2023/08/27 11:34:44;;;;;;;3.72;2.67;;;20.80;99.90;;;;;;5111311;28;20445;-82
2023/08/27 11:37:11;;;;;;;4.45;3.17;;;21.20;99.90;;;;;;5116260;28;20883;-82
2023/08/27 11:39:38;;;;;;;7.78;4.03;;;20.90;99.90;;;;;;5098919;28;20404;-82
2023/08/27 11:42:12;;;;;;;5.47;3.50;;;20.70;99.90;;;;;;5117058;28;20440;-83
2023/08/27 11:44:53;;;;;;;3.53;3.00;;;20.50;99.90;;;;;;5115496;28;20428;-83
2023/08/27 11:47:21;;;;;;;5.63;4.00;;;20.10;99.90;;;;;;5095315;28;20507;-83
2023/08/27 11:49:48;;;;;;;7.07;3.45;;;19.80;99.90;;;;;;5083158;28;20396;-82
2023/08/27 11:52:14;;;;;;;5.07;4.00;;;19.30;99.90;;;;;;5118228;28;20428;-83
2023/08/27 11:54:46;;;;;;;5.57;4.20;;;19.60;99.90;;;;;;5099515;28;20468;-83
2023/08/27 11:57:13;;;;;;;6.60;4.70;;;19.60;99.90;;;;;;5115862;28;20404;-83
2023/08/27 11:59:39;;;;;;;7.22;4.88;;;19.50;99.90;;;;;;5115719;28;20412;-83
2023/08/27 12:02:06;;;;;;;8.40;5.18;;;18.80;99.90;;;;;;5085328;28;20771;-83
2023/08/27 12:04:32;;;;;;;6.67;4.30;;;18.20;99.90;;;;;;5095198;28;20458;-83
2023/08/27 12:07:03;;;;;;;5.63;2.63;;;17.70;99.90;;;;;;5095581;28;20386;-78
2023/08/27 12:09:33;;;;;;;5.65;1.60;;;17.30;99.90;;;;;;5098579;28;20405;-78
2023/08/27 12:12:02;;;;;;;1.73;1.10;;;17.00;99.90;;;;;;5096901;28;20432;-77
2023/08/27 12:14:29;;;;;;;3.70;0.95;;;16.50;99.90;;;;;;5112390;28;20408;-78
2023/08/27 12:17:07;;;;;;;2.78;1.20;;;16.30;99.90;;;;;;5080408;28;20401;-77
2023/08/27 12:19:34;;;;;;;2.70;1.20;;;16.20;99.90;;;;;;5088536;28;20492;-77
2023/08/27 12:22:00;;;;;;;2.65;1.50;;;16.30;99.90;;;;;;5086551;28;20511;-79
2023/08/27 12:24:33;;;;;;;2.88;1.70;;;16.10;99.90;;;;;;5093982;28;20445;-78
2023/08/27 12:27:01;;;;;;;2.63;1.63;;;16.40;99.90;;;;;;5100520;28;20763;-78
2023/08/27 12:29:29;;;;;;;4.28;1.70;;;16.60;99.90;;;;;;5097525;28;20447;-76
2023/08/27 12:31:55;;;;;;;3.40;1.63;;;16.70;99.90;;;;;;5097706;28;20967;-77
2023/08/27 12:34:44;;;;;;;3.60;1.80;;;16.80;99.90;;;;;;5104404;28;20498;-78
2023/08/27 12:37:11;;;;;;;4.38;1.90;;;17.40;99.90;;;;;;5070734;28;20522;-78
2023/08/27 12:39:38;;;;;;;3.30;1.80;;;17.60;99.90;;;;;;5059963;28;20505;-78
2023/08/27 12:42:08;;;;;;;4.18;1.85;;;17.90;99.90;;;;;;5076405;28;20394;-78